This is the latest recevied weather packets stored in our database for station/object 5B4APJ-13. If no packets are shown the sender has not sent any weather packets the latest 10 day(s).
| Time | Temp. | Humidity | Pressure | Rain* | Wind** | Luminosity | Snow |
|---|---|---|---|---|---|---|---|
| 1777435328 | 15° C | 86% | 1013.6 hPa | 0 mm | 1.34 m/s, 258° | 72 W/m² | - |
| 1777435028 | 15° C | 88% | 1013.6 hPa | 0 mm | 2.24 m/s, 260° | 64 W/m² | - |
| 1777434728 | 14.44° C | 88% | 1013.5 hPa | 0 mm | 2.24 m/s, 255° | 55 W/m² | - |
| 1777434428 | 13.89° C | 87% | 1013 hPa | 0 mm | 1.34 m/s, 253° | 47 W/m² | - |
| 1777434128 | 13.89° C | 88% | 1013.1 hPa | 0 mm | 0.89 m/s, 247° | 41 W/m² | - |
| 1777433828 | 13.33° C | 90% | 1013.3 hPa | 0 mm | 0.89 m/s, 260° | 34 W/m² | - |
| 1777433529 | 12.78° C | 92% | 1013.2 hPa | 0 mm | 0.45 m/s, 258° | 29 W/m² | - |
| 1777433228 | 12.78° C | 92% | 1013.2 hPa | 0 mm | 0.89 m/s, 262° | 25 W/m² | - |
| 1777432928 | 12.22° C | 93% | 1013.1 hPa | 0 mm | 0.89 m/s, 258° | 20 W/m² | - |
| 1777432629 | 12.22° C | 93% | 1013.2 hPa | 0 mm | 0.89 m/s, 248° | 16 W/m² | - |
| 1777432328 | 12.78° C | 94% | 1013 hPa | 0 mm | 0.45 m/s, 108° | 12 W/m² | - |
| 1777432029 | 12.78° C | 94% | 1013 hPa | 0 mm | 0.45 m/s, 108° | 8 W/m² | - |
| 1777431728 | 12.78° C | 94% | 1013.1 hPa | 0 mm | 0.45 m/s, 103° | 5 W/m² | - |
| 1777431428 | 12.78° C | 94% | 1012.4 hPa | 0 mm | 0 m/s | 3 W/m² | - |
| 1777431128 | 12.78° C | 94% | 1012.5 hPa | 0 mm | 0.45 m/s, 100° | 1 W/m² | - |
| 1777430829 | 12.78° C | 93% | 1012.7 hPa | 0 mm | 0 m/s | 1 W/m² | - |
| 1777430528 | 12.78° C | 93% | 1012.7 hPa | 0 mm | 0 m/s | 0 W/m² | - |
| 1777430229 | 12.78° C | 93% | 1012.6 hPa | 0 mm | 0.45 m/s, 3° | 0 W/m² | - |
| 1777429929 | 13.33° C | 93% | 1012.4 hPa | 0 mm | 0.45 m/s, 249° | 0 W/m² | - |
| 1777429628 | 13.33° C | 94% | 1012.5 hPa | 0 mm | 0.89 m/s, 249° | 0 W/m² | - |
| 1777429328 | 13.33° C | 94% | 1012.4 hPa | 0 mm | 1.79 m/s, 242° | 0 W/m² | - |
| 1777429028 | 13.33° C | 95% | 1012.6 hPa | 0 mm | 1.79 m/s, 246° | 0 W/m² | - |
| 1777428728 | 13.33° C | 95% | 1012.5 hPa | 0 mm | 0.89 m/s, 260° | 0 W/m² | - |
| 1777428428 | 13.33° C | 95% | 1012.4 hPa | 0 mm | 0.45 m/s, 249° | 0 W/m² | - |
| 1777428128 | 13.33° C | 95% | 1012.5 hPa | 0 mm | 0.89 m/s, 249° | 0 W/m² | - |
* Rain latest hour (hover to see other rain measurements)
** Current wind speed in m/s (hover to see current wind gust speed)